Terminal Aerodrome Forecast
Issued by NWS

Home | Current Version | Previous Version | Text Only | Print | Product List | Glossary On
Versions: 1 2 3 4 5 6 7 8 9 10 11 12 13 14 15
000
FTUS45 KTFX 040524
TAFGTF
TAF
KGTF 040524Z 0406/0506 02006KT P6SM -SHRA BKN025 OVC040
      TEMPO 0406/0410 2SM BR BKN003 OVC025
     FM041300 05008KT P6SM -RA SCT040 BKN070
     FM050200 06006KT P6SM -SHRA BKN025 OVC040=

USA.gov is the U.S. government's official web portal to all federal, state and local government web resources and services.